Time;durP1;ratioP1;P1;durP2;ratioP2;P2;SDS_P1;SDS_P2;PMS_P1;PMS_P2;Temp;Humidity;BMP_temperature;BMP_pressure;BME280_temperature;BME280_humidity;BME280_pressure;Samples;Min_cycle;Max_cycle;Signal;HPM_P1;HPM_P2
2022/09/15 00:00:50;;;;;;;;;;;;;;;20.61;29.88;97485.53;5042084;28;871;-76
2022/09/15 00:03:15;;;;;;;;;;;;;;;20.81;29.56;97484.06;5059817;28;1983;-76
2022/09/15 00:05:41;;;;;;;;;;;;;;;20.85;29.41;97500.13;5041822;28;719;-76
2022/09/15 00:08:06;;;;;;;;;;;;;;;20.97;29.41;97502.16;5059887;28;1056;-76
2022/09/15 00:10:32;;;;;;;;;;;;;;;20.79;29.66;97499.91;5059468;28;1282;-76
2022/09/15 00:12:57;;;;;;;;;;;;;;;20.76;29.61;97504.41;5041587;28;986;-76
2022/09/15 00:15:22;;;;;;;;;;;;;;;21.21;29.15;97500.56;5041810;28;1436;-76
2022/09/15 00:17:49;;;;;;;;;;;;;;;21.40;28.80;97507.25;5025052;28;957;-76
2022/09/15 00:20:15;;;;;;;;;;;;;;;21.30;28.66;97502.75;5041927;28;708;-76
2022/09/15 00:22:40;;;;;;;;;;;;;;;21.12;29.08;97496.84;5041687;28;780;-77
2022/09/15 00:25:06;;;;;;;;;;;;;;;20.97;29.39;97502.94;5059462;28;1921;-76
2022/09/15 00:27:32;;;;;;;;;;;;;;;20.95;29.45;97499.78;5041851;28;830;-77
2022/09/15 00:29:57;;;;;;;;;;;;;;;20.93;29.66;97496.59;5041218;28;1521;-76
2022/09/15 00:32:23;;;;;;;;;;;;;;;21.04;29.14;97497.09;5059297;28;940;-76
2022/09/15 00:34:48;;;;;;;;;;;;;;;20.92;29.58;97489.38;5058790;28;838;-76
2022/09/15 00:37:14;;;;;;;;;;;;;;;20.90;29.48;97486.22;5041315;28;982;-76
2022/09/15 00:39:39;;;;;;;;;;;;;;;20.91;29.33;97484.19;5058688;28;818;-76
2022/09/15 00:42:05;;;;;;;;;;;;;;;20.73;29.72;97488.38;5058710;28;873;-76
2022/09/15 00:44:53;;;;;;;;;;;;;;;20.70;29.99;97483.63;5059085;28;1918;-76
2022/09/15 00:47:20;;;;;;;;;;;;;;;20.99;29.35;97483.50;5040904;28;981;-76
2022/09/15 00:49:46;;;;;;;;;;;;;;;21.29;28.86;97489.78;5023741;28;1245;-76
2022/09/15 00:52:16;;;;;;;;;;;;;;;21.06;29.22;97471.16;5041057;28;841;-77
2022/09/15 00:54:49;;;;;;;;;;;;;;;20.84;29.63;97470.28;5058939;28;913;-76
2022/09/15 00:57:17;;;;;;;;;;;;;;;20.89;29.61;97462.03;5040868;28;964;-76
2022/09/15 00:59:42;;;;;;;;;;;;;;;21.03;29.47;97455.09;5041157;28;858;-77
2022/09/15 01:02:15;;;;;;;;;;;;;;;20.76;29.98;97453.53;5040918;28;1224;-76
2022/09/15 01:04:40;;;;;;;;;;;;;;;20.86;29.60;97457.25;5058651;28;1902;-77
2022/09/15 01:07:06;;;;;;;;;;;;;;;20.79;29.49;97446.97;5036230;28;947;-76
2022/09/15 01:09:34;;;;;;;;;;;;;;;21.00;29.48;97444.69;5019471;28;1217;-76
2022/09/15 01:12:00;;;;;;;;;;;;;;;20.69;29.63;97456.59;5036168;28;955;-76
2022/09/15 01:14:25;;;;;;;;;;;;;;;20.63;29.86;97444.28;5019883;28;794;-76
2022/09/15 01:17:10;;;;;;;;;;;;;;;20.59;29.79;97437.94;5019818;28;957;-77
2022/09/15 01:19:38;;;;;;;;;;;;;;;21.42;28.59;97434.00;5036284;28;901;-76
2022/09/15 01:22:21;;;;;;;;;;;;;;;21.57;28.37;97431.47;5035981;28;880;-76
2022/09/15 01:24:47;;;;;;;;;;;;;;;21.10;29.06;97432.25;5035799;28;1910;-76
2022/09/15 01:27:15;;;;;;;;;;;;;;;21.13;29.17;97424.88;5035772;28;821;-77
2022/09/15 01:29:41;;;;;;;;;;;;;;;20.69;29.81;97421.88;4986848;28;921;-76
2022/09/15 01:34:59;;;;;;;;;;;;;;;20.75;29.89;97429.34;5022012;28;855;-76
2022/09/15 01:37:27;;;;;;;;;;;;;;;20.84;29.48;97436.34;5024025;28;843;-76
2022/09/15 01:39:52;;;;;;;;;;;;;;;20.62;29.87;97424.91;5040035;28;785;-76
2022/09/15 01:42:18;;;;;;;;;;;;;;;20.74;29.87;97422.09;5006987;28;1171;-76
2022/09/15 01:44:54;;;;;;;;;;;;;;;20.71;29.68;97414.50;5023727;28;1968;-76
2022/09/15 01:47:20;;;;;;;;;;;;;;;20.88;29.63;97431.34;5039842;28;755;-77
2022/09/15 01:49:48;;;;;;;;;;;;;;;21.35;28.90;97424.94;5039888;28;853;-76
2022/09/15 01:52:14;;;;;;;;;;;;;;;21.49;28.43;97418.81;5057549;28;918;-76
2022/09/15 01:54:41;;;;;;;;;;;;;;;21.08;29.08;97417.75;5040098;28;906;-77
2022/09/15 01:57:06;;;;;;;;;;;;;;;20.97;29.42;97423.75;5057483;28;853;-77
2022/09/15 01:59:32;;;;;;;;;;;;;;;21.02;29.24;97419.56;5039751;28;864;-77
2022/09/15 02:02:08;;;;;;;;;;;;;;;20.96;29.43;97416.53;5005801;28;932;-76
2022/09/15 02:04:39;;;;;;;;;;;;;;;21.06;29.15;97425.91;5023512;28;1910;-76
2022/09/15 02:07:26;;;;;;;;;;;;;;;20.84;29.61;97419.38;5039351;28;780;-76
2022/09/15 02:09:52;;;;;;;;;;;;;;;21.11;29.38;97419.69;5039595;28;1071;-77
2022/09/15 02:12:31;;;;;;;;;;;;;;;21.44;28.50;97406.03;5057064;28;945;-76
2022/09/15 02:15:04;;;;;;;;;;;;;;;21.12;29.10;97407.09;5057009;28;956;-76
2022/09/15 02:17:34;;;;;;;;;;;;;;;21.01;29.28;97401.03;5039727;28;874;-76
2022/09/15 02:20:38;;;;;;;;;;;;;;;20.84;29.88;97396.75;5056784;28;957;-77
2022/09/15 02:23:07;;;;;;;;;;;;;;;20.75;29.89;97395.41;4976512;28;815;-76
2022/09/15 02:25:35;;;;;;;;;;;;;;;20.81;29.84;97399.25;4960292;28;1982;-77
2022/09/15 02:28:01;;;;;;;;;;;;;;;20.92;29.68;97398.09;4960436;28;996;-76
2022/09/15 02:30:27;;;;;;;;;;;;;;;20.69;29.97;97397.22;4960475;28;1234;-76
2022/09/15 02:32:56;;;;;;;;;;;;;;;20.88;29.46;97394.59;4960065;28;1007;-76
2022/09/15 02:35:21;;;;;;;;;;;;;;;20.83;29.41;97409.28;4959946;28;925;-76
2022/09/15 02:37:47;;;;;;;;;;;;;;;20.88;29.34;97403.06;4959998;28;804;-77
2022/09/15 02:40:12;;;;;;;;;;;;;;;20.81;29.69;97402.06;4960211;28;927;-77
2022/09/15 02:42:38;;;;;;;;;;;;;;;21.49;28.52;97398.97;4960417;28;885;-76
2022/09/15 02:45:03;;;;;;;;;;;;;;;21.54;28.42;97396.34;4975914;28;1914;-76
2022/09/15 02:47:29;;;;;;;;;;;;;;;21.18;28.94;97399.63;4975835;28;889;-77
2022/09/15 02:49:54;;;;;;;;;;;;;;;20.97;29.64;97389.03;4944181;28;1313;-76
2022/09/15 02:52:20;;;;;;;;;;;;;;;20.92;29.67;97392.44;4959758;28;962;-76
2022/09/15 02:54:45;;;;;;;;;;;;;;;20.86;29.44;97391.44;5030876;28;920;-76
2022/09/15 02:57:12;;;;;;;;;;;;;;;20.80;29.86;97403.31;5056682;28;860;-76
2022/09/15 03:02:22;;;;;;;;;;;;;;;20.91;29.40;97390.84;5039066;28;1387;-76
2022/09/15 03:04:48;;;;;;;;;;;;;;;20.83;29.40;97400.81;5039179;28;1906;-76
2022/09/15 03:07:13;;;;;;;;;;;;;;;20.67;29.78;97398.91;5038742;28;763;-77
2022/09/15 03:09:39;;;;;;;;;;;;;;;20.65;29.70;97407.84;5039057;28;1152;-76
2022/09/15 03:12:04;;;;;;;;;;;;;;;20.94;29.25;97404.09;5038668;28;904;-76
2022/09/15 03:14:31;;;;;;;;;;;;;;;21.25;29.21;97407.88;5021069;28;1019;-77
2022/09/15 03:17:00;;;;;;;;;;;;;;;21.31;28.59;97413.78;5038702;28;868;-76
2022/09/15 03:19:25;;;;;;;;;;;;;;;21.33;28.49;97412.06;5005586;28;909;-76
2022/09/15 03:21:51;;;;;;;;;;;;;;;21.12;28.96;97424.09;5021829;28;779;-76
2022/09/15 03:24:18;;;;;;;;;;;;;;;21.06;29.14;97414.59;5021519;28;1918;-76
2022/09/15 03:26:44;;;;;;;;;;;;;;;20.74;29.71;97413.63;5021964;28;986;-76
2022/09/15 03:29:09;;;;;;;;;;;;;;;20.77;29.62;97409.88;5038352;28;961;-76
2022/09/15 03:31:34;;;;;;;;;;;;;;;20.57;30.02;97412.13;5038597;28;945;-76
2022/09/15 03:34:00;;;;;;;;;;;;;;;20.63;29.78;97409.56;5021289;28;980;-76
2022/09/15 03:36:25;;;;;;;;;;;;;;;20.90;29.31;97412.69;5038293;28;997;-76
2022/09/15 03:38:51;;;;;;;;;;;;;;;20.93;29.51;97406.13;5017648;28;728;-76
2022/09/15 03:41:17;;;;;;;;;;;;;;;21.28;28.84;97415.44;5004262;28;1869;-76
2022/09/15 03:43:43;;;;;;;;;;;;;;;21.31;28.55;97414.56;5038002;28;1983;-76
2022/09/15 03:46:10;;;;;;;;;;;;;;;21.00;29.34;97424.91;5037647;28;919;-76
2022/09/15 03:48:35;;;;;;;;;;;;;;;21.10;29.03;97420.13;5042251;28;861;-76
2022/09/15 03:51:01;;;;;;;;;;;;;;;21.04;29.10;97422.75;5059809;28;754;-77
2022/09/15 03:53:29;;;;;;;;;;;;;;;21.12;28.89;97412.75;5059836;28;908;-76
2022/09/15 03:55:54;;;;;;;;;;;;;;;20.84;29.49;97413.72;5041534;28;1676;-76
2022/09/15 03:58:20;;;;;;;;;;;;;;;20.73;29.60;97411.25;5059732;28;832;-76
2022/09/15 04:00:45;;;;;;;;;;;;;;;20.63;30.07;97410.34;5059938;28;884;-76
2022/09/15 04:03:11;;;;;;;;;;;;;;;20.65;29.74;97407.84;5008036;28;1116;-76
2022/09/15 04:05:37;;;;;;;;;;;;;;;20.86;29.60;97405.56;5025375;28;1954;-76
2022/09/15 04:08:03;;;;;;;;;;;;;;;21.27;28.83;97404.59;5039581;28;840;-76
2022/09/15 04:10:29;;;;;;;;;;;;;;;21.38;28.95;97407.06;5040103;28;1282;-76
2022/09/15 04:12:54;;;;;;;;;;;;;;;21.35;28.62;97402.31;5038232;28;874;-76
2022/09/15 04:15:20;;;;;;;;;;;;;;;20.99;29.58;97397.88;5041396;28;1494;-76
2022/09/15 04:17:45;;;;;;;;;;;;;;;20.88;29.57;97403.06;5058921;28;1495;-76
2022/09/15 04:20:11;;;;;;;;;;;;;;;20.80;29.94;97392.00;5059338;28;746;-76
2022/09/15 04:22:36;;;;;;;;;;;;;;;20.73;29.82;97392.25;5059596;28;1046;-76
2022/09/15 04:25:02;;;;;;;;;;;;;;;20.85;29.69;97395.50;5036988;28;1913;-76
2022/09/15 04:27:28;;;;;;;;;;;;;;;20.68;30.26;97395.66;5034280;28;1495;-76
2022/09/15 04:29:53;;;;;;;;;;;;;;;20.73;30.03;97403.56;5035348;28;1426;-77
2022/09/15 04:32:19;;;;;;;;;;;;;;;20.62;30.35;97397.44;5037307;28;940;-76
2022/09/15 04:34:45;;;;;;;;;;;;;;;20.71;30.24;97402.41;5035820;28;1561;-76
2022/09/15 04:37:10;;;;;;;;;;;;;;;20.88;29.80;97397.41;5035458;28;1780;-75
2022/09/15 04:39:35;;;;;;;;;;;;;;;21.06;29.69;97401.25;5036718;28;742;-76
2022/09/15 04:42:04;;;;;;;;;;;;;;;21.37;29.23;97389.31;5036705;28;954;-77
2022/09/15 04:44:30;;;;;;;;;;;;;;;21.42;29.13;97402.09;5036589;28;1910;-76
2022/09/15 04:46:55;;;;;;;;;;;;;;;21.12;29.57;97398.63;5020377;28;711;-76
2022/09/15 04:49:21;;;;;;;;;;;;;;;21.04;29.80;97411.44;5019158;28;1507;-76
2022/09/15 04:51:47;;;;;;;;;;;;;;;21.03;30.15;97409.84;4987600;28;874;-76
2022/09/15 04:54:12;;;;;;;;;;;;;;;20.88;30.42;97412.38;5019144;28;1808;-76
2022/09/15 04:56:38;;;;;;;;;;;;;;;20.75;30.41;97405.94;5032733;28;784;-76
2022/09/15 04:59:03;;;;;;;;;;;;;;;20.91;30.13;97413.47;5038860;28;1045;-77
2022/09/15 05:01:29;;;;;;;;;;;;;;;20.88;30.37;97415.19;5021102;28;1105;-76
2022/09/15 05:03:55;;;;;;;;;;;;;;;20.87;30.44;97415.63;5020740;28;1918;-76
2022/09/15 05:06:25;;;;;;;;;;;;;;;21.01;29.99;97412.34;5022568;28;1250;-76
2022/09/15 05:08:51;;;;;;;;;;;;;;;20.94;30.14;97412.59;5040453;28;1045;-76
2022/09/15 05:11:17;;;;;;;;;;;;;;;20.89;30.44;97416.00;5057169;28;1002;-76
2022/09/15 05:13:42;;;;;;;;;;;;;;;20.81;30.16;97415.41;5057956;28;1008;-76
2022/09/15 05:16:12;;;;;;;;;;;;;;;20.81;30.29;97423.91;5058258;28;815;-76
2022/09/15 05:18:38;;;;;;;;;;;;;;;20.87;30.21;97419.25;5057734;28;803;-76
2022/09/15 05:21:03;;;;;;;;;;;;;;;20.59;30.64;97432.28;5057289;28;815;-76
2022/09/15 05:23:29;;;;;;;;;;;;;;;20.80;30.78;97430.81;5058996;28;1910;-77
2022/09/15 05:25:55;;;;;;;;;;;;;;;20.72;30.77;97418.91;4995655;28;1488;-76
2022/09/15 05:28:21;;;;;;;;;;;;;;;20.80;30.38;97423.09;4980140;28;975;-76
2022/09/15 05:30:46;;;;;;;;;;;;;;;20.84;30.35;97425.03;4996478;28;945;-76
2022/09/15 05:33:11;;;;;;;;;;;;;;;20.92;30.23;97426.38;4980366;28;990;-76
2022/09/15 05:35:37;;;;;;;;;;;;;;;21.00;30.34;97419.25;4995727;28;989;-75
2022/09/15 05:38:03;;;;;;;;;;;;;;;20.84;30.25;97425.03;4996583;28;883;-76
2022/09/15 05:40:28;;;;;;;;;;;;;;;20.78;30.60;97428.44;4991455;28;1994;-76
2022/09/15 05:42:54;;;;;;;;;;;;;;;20.88;30.31;97420.84;4979710;28;927;-76
2022/09/15 05:45:19;;;;;;;;;;;;;;;20.81;30.64;97421.84;4992717;28;1972;-76
2022/09/15 05:47:45;;;;;;;;;;;;;;;20.78;30.54;97419.97;4976297;28;1231;-76
2022/09/15 05:50:10;;;;;;;;;;;;;;;21.10;30.27;97420.94;4976650;28;1183;-77
2022/09/15 05:52:36;;;;;;;;;;;;;;;21.44;29.95;97419.38;4976339;28;945;-76
2022/09/15 05:55:02;;;;;;;;;;;;;;;21.31;29.83;97414.56;4976302;28;782;-76
2022/09/15 05:57:28;;;;;;;;;;;;;;;21.08;30.46;97423.41;4980086;28;1863;-76
2022/09/15 05:59:53;;;;;;;;;;;;;;;21.10;30.33;97425.78;5015128;28;934;-76
2022/09/15 06:02:19;;;;;;;;;;;;;;;20.90;30.67;97424.00;4999254;28;822;-77
2022/09/15 06:04:44;;;;;;;;;;;;;;;20.98;30.51;97418.88;5015210;28;1949;-77
2022/09/15 06:07:10;;;;;;;;;;;;;;;20.84;30.91;97422.22;4998882;28;930;-76
2022/09/15 06:09:35;;;;;;;;;;;;;;;20.86;30.73;97419.72;5015146;28;1075;-76
2022/09/15 06:12:01;;;;;;;;;;;;;;;20.91;30.71;97410.66;4982555;28;1524;-77
2022/09/15 06:14:26;;;;;;;;;;;;;;;20.68;31.48;97412.59;4996244;28;1161;-76
2022/09/15 06:16:52;;;;;;;;;;;;;;;21.01;30.60;97418.00;4995622;28;896;-76
2022/09/15 06:19:17;;;;;;;;;;;;;;;20.95;30.69;97417.00;4995423;28;940;-76
2022/09/15 06:21:43;;;;;;;;;;;;;;;20.88;30.99;97420.03;4996088;28;987;-76
2022/09/15 06:24:10;;;;;;;;;;;;;;;20.84;30.80;97413.72;5011090;28;1917;-76
2022/09/15 06:26:35;;;;;;;;;;;;;;;20.74;31.32;97410.00;5014963;28;1662;-76
2022/09/15 06:29:01;;;;;;;;;;;;;;;20.78;30.96;97411.47;5017651;28;867;-76
2022/09/15 06:31:27;;;;;;;;;;;;;;;20.87;31.04;97418.47;5001469;28;1432;-76
2022/09/15 06:33:53;;;;;;;;;;;;;;;20.78;30.95;97417.13;4985242;28;1536;-76
2022/09/15 06:36:19;;;;;;;;;;;;;;;20.63;31.31;97407.53;4983695;28;1330;-76
2022/09/15 06:38:44;;;;;;;;;;;;;;;20.51;31.49;97419.59;5000118;28;1028;-76
2022/09/15 06:41:10;;;;;;;;;;;;;;;20.71;31.13;97411.69;5016857;28;922;-77
2022/09/15 06:43:35;;;;;;;;;;;;;;;20.67;31.34;97422.31;5017165;28;1910;-76
2022/09/15 06:46:05;;;;;;;;;;;;;;;20.72;31.33;97421.75;4999888;28;946;-76
2022/09/15 06:48:31;;;;;;;;;;;;;;;20.91;30.95;97427.63;5004690;28;1508;-76
2022/09/15 06:50:57;;;;;;;;;;;;;;;20.91;30.99;97425.59;5027285;28;1480;-76
2022/09/15 06:53:22;;;;;;;;;;;;;;;20.80;31.15;97414.63;5039803;28;1541;-76
2022/09/15 06:55:48;;;;;;;;;;;;;;;20.99;30.91;97426.16;5035731;28;1700;-76
2022/09/15 06:58:13;;;;;;;;;;;;;;;20.95;30.86;97431.13;4987135;28;932;-76
2022/09/15 07:00:38;;;;;;;;;;;;;;;20.94;31.15;97429.56;5013782;28;1701;-76
2022/09/15 07:03:04;;;;;;;;;;;;;;;21.05;30.84;97430.00;5022955;28;806;-76
2022/09/15 07:05:29;;;;;;;;;;;;;;;20.95;30.97;97422.66;5040734;28;1914;-76
2022/09/15 07:07:55;;;;;;;;;;;;;;;20.96;30.72;97422.19;5040993;28;779;-77
2022/09/15 07:10:20;;;;;;;;;;;;;;;20.81;31.37;97409.75;5058459;28;1224;-76
2022/09/15 07:12:46;;;;;;;;;;;;;;;20.88;31.54;97408.72;5018403;28;898;-76
2022/09/15 07:15:11;;;;;;;;;;;;;;;20.87;31.11;97401.50;5018790;28;926;-76
2022/09/15 07:17:37;;;;;;;;;;;;;;;20.93;31.01;97385.53;5017659;28;1428;-76
2022/09/15 07:20:02;;;;;;;;;;;;;;;20.88;31.20;97392.56;5017667;28;1462;-75
2022/09/15 07:22:28;;;;;;;;;;;;;;;21.02;31.27;97389.25;5002254;28;1484;-77
2022/09/15 07:24:53;;;;;;;;;;;;;;;20.96;31.03;97387.47;5001944;28;1906;-76
2022/09/15 07:27:21;;;;;;;;;;;;;;;21.08;31.18;97389.47;4997751;28;1668;-76
2022/09/15 07:29:46;;;;;;;;;;;;;;;20.95;31.13;97397.97;4982650;28;842;-77
2022/09/15 07:32:12;;;;;;;;;;;;;;;21.11;31.14;97394.22;4982965;28;842;-76
2022/09/15 07:34:37;;;;;;;;;;;;;;;21.01;31.11;97401.03;4982387;28;995;-76
2022/09/15 07:37:03;;;;;;;;;;;;;;;20.87;31.37;97404.31;4996578;28;1587;-76
2022/09/15 07:39:29;;;;;;;;;;;;;;;20.89;31.29;97396.97;4964155;28;1861;-76
2022/09/15 07:41:55;;;;;;;;;;;;;;;20.97;31.50;97406.00;4959413;29;1777;-76
2022/09/15 07:44:20;;;;;;;;;;;;;;;20.96;31.38;97410.09;4989008;28;1910;-76
2022/09/15 07:46:46;;;;;;;;;;;;;;;20.90;31.67;97397.78;4998228;28;1068;-76
2022/09/15 07:49:11;;;;;;;;;;;;;;;20.85;31.86;97398.34;4998431;28;960;-76
2022/09/15 07:51:37;;;;;;;;;;;;;;;20.86;31.65;97397.09;4998197;28;818;-76
2022/09/15 07:54:03;;;;;;;;;;;;;;;20.85;31.89;97398.34;4981752;28;1780;-77
2022/09/15 07:56:28;;;;;;;;;;;;;;;20.79;31.72;97407.41;4981787;28;1019;-76
2022/09/15 07:58:54;;;;;;;;;;;;;;;20.86;31.85;97400.72;5012458;28;887;-76
2022/09/15 08:01:21;;;;;;;;;;;;;;;20.85;31.74;97404.00;5017911;28;859;-76
2022/09/15 08:03:50;;;;;;;;;;;;;;;20.94;31.62;97404.88;4997816;28;1918;-76
2022/09/15 08:06:19;;;;;;;;;;;;;;;21.12;31.38;97409.16;4998247;28;895;-76
2022/09/15 08:08:45;;;;;;;;;;;;;;;21.06;31.26;97408.94;4989374;28;1559;-77
2022/09/15 08:11:11;;;;;;;;;;;;;;;20.98;31.53;97401.91;5049972;28;1525;-76
2022/09/15 08:13:37;;;;;;;;;;;;;;;20.93;31.82;97411.78;5040494;28;1577;-76
2022/09/15 08:16:06;;;;;;;;;;;;;;;20.97;31.62;97400.34;5041740;28;1364;-76
2022/09/15 08:18:32;;;;;;;;;;;;;;;20.83;32.01;97401.63;5042060;28;825;-77
2022/09/15 08:20:57;;;;;;;;;;;;;;;20.94;31.63;97396.41;5042000;28;973;-76
2022/09/15 08:23:23;;;;;;;;;;;;;;;21.17;31.60;97392.38;5055011;28;1499;-76
2022/09/15 08:25:50;;;;;;;;;;;;;;;20.97;31.77;97387.00;5057961;28;1914;-76
2022/09/15 08:28:16;;;;;;;;;;;;;;;20.97;31.74;97389.03;5059190;28;867;-76
2022/09/15 08:30:41;;;;;;;;;;;;;;;21.01;31.60;97386.88;5058973;28;924;-76
2022/09/15 08:33:06;;;;;;;;;;;;;;;21.18;31.55;97388.31;5017275;28;1213;-77
2022/09/15 08:35:33;;;;;;;;;;;;;;;21.06;31.50;97397.63;5017334;28;863;-76
2022/09/15 08:37:58;;;;;;;;;;;;;;;21.03;31.75;97409.84;5017609;28;923;-76
2022/09/15 08:40:27;;;;;;;;;;;;;;;20.93;32.14;97391.19;5016358;28;1554;-76
2022/09/15 08:42:54;;;;;;;;;;;;;;;20.97;32.12;97406.00;4999730;28;1468;-77
2022/09/15 08:45:22;;;;;;;;;;;;;;;20.84;32.21;97397.56;4982465;28;1914;-77
2022/09/15 08:47:47;;;;;;;;;;;;;;;20.87;32.34;97396.63;4982940;28;1630;-76
2022/09/15 08:50:21;;;;;;;;;;;;;;;20.99;32.12;97409.19;4981265;28;935;-77
2022/09/15 08:53:13;;;;;;;;;;;;;;;20.96;31.99;97398.78;4981733;28;1630;-76
2022/09/15 08:55:49;;;;;;;;;;;;;;;21.02;32.26;97406.22;4938657;29;1750;-76
2022/09/15 08:58:14;;;;;;;;;;;;;;;20.91;32.20;97402.16;4938772;29;1326;-76
2022/09/15 09:00:41;;;;;;;;;;;;;;;20.96;32.46;97398.78;4958509;29;962;-76
2022/09/15 09:03:19;;;;;;;;;;;;;;;20.74;32.66;97398.69;4961803;28;854;-76
2022/09/15 09:05:56;;;;;;;;;;;;;;;21.05;31.96;97396.03;4996671;28;1973;-76
2022/09/15 09:08:33;;;;;;;;;;;;;;;20.99;32.25;97392.22;4979126;28;1528;-76
2022/09/15 09:10:59;;;;;;;;;;;;;;;20.99;32.14;97386.56;4995787;28;949;-76
2022/09/15 09:13:38;;;;;;;;;;;;;;;21.15;32.11;97380.75;4996754;28;1195;-76
2022/09/15 09:16:08;;;;;;;;;;;;;;;21.10;32.18;97375.66;4980423;28;986;-76
2022/09/15 09:18:36;;;;;;;;;;;;;;;21.10;32.23;97375.66;4996692;28;1028;-76
2022/09/15 09:21:04;;;;;;;;;;;;;;;20.99;32.49;97376.03;4996163;28;1520;-76
2022/09/15 09:23:31;;;;;;;;;;;;;;;21.08;32.27;97372.47;4996170;28;1977;-76
2022/09/15 09:25:56;;;;;;;;;;;;;;;21.11;32.16;97377.25;4997276;28;951;-76
2022/09/15 09:28:29;;;;;;;;;;;;;;;21.15;32.16;97372.25;4996621;28;931;-78
2022/09/15 09:30:59;;;;;;;;;;;;;;;21.00;32.23;97371.16;4980435;28;783;-79
2022/09/15 09:33:27;;;;;;;;;;;;;;;21.14;32.15;97373.50;5016162;28;1059;-77
2022/09/15 09:35:52;;;;;;;;;;;;;;;20.96;32.52;97381.81;5021029;28;915;-76
2022/09/15 09:38:25;;;;;;;;;;;;;;;21.19;32.14;97378.59;5016229;28;1547;-77
2022/09/15 09:40:51;;;;;;;;;;;;;;;21.32;31.91;97376.53;5017829;28;905;-76
2022/09/15 09:43:16;;;;;;;;;;;;;;;21.35;32.15;97379.66;5017798;28;945;-76
2022/09/15 09:45:41;;;;;;;;;;;;;;;21.13;32.46;97374.72;5000847;28;1975;-77
2022/09/15 09:48:20;;;;;;;;;;;;;;;21.11;32.39;97377.25;5016895;28;901;-77
2022/09/15 09:50:46;;;;;;;;;;;;;;;21.12;32.70;97372.38;4958650;28;1564;-76
2022/09/15 09:53:17;;;;;;;;;;;;;;;21.13;32.51;97377.56;4960689;28;967;-77
2022/09/15 09:55:44;;;;;;;;;;;;;;;21.01;33.06;97372.75;4976856;28;917;-76
2022/09/15 09:58:19;;;;;;;;;;;;;;;21.11;32.83;97377.25;4944816;28;1219;-76
2022/09/15 10:00:45;;;;;;;;;;;;;;;21.26;32.58;97369.84;4960537;28;873;-77
2022/09/15 10:03:11;;;;;;;;;;;;;;;21.23;32.45;97361.47;4976223;28;978;-76
2022/09/15 10:05:36;;;;;;;;;;;;;;;21.32;32.65;97351.06;4968964;28;1903;-76
2022/09/15 10:08:02;;;;;;;;;;;;;;;21.31;32.64;97363.63;4941632;29;1072;-76
2022/09/15 10:10:31;;;;;;;;;;;;;;;21.09;33.03;97368.44;4974651;28;1340;-77
2022/09/15 10:12:56;;;;;;;;;;;;;;;21.26;32.80;97360.56;4976772;28;778;-77
2022/09/15 10:15:23;;;;;;;;;;;;;;;21.18;33.04;97359.22;4942024;29;2112;-77
2022/09/15 10:17:48;;;;;;;;;;;;;;;21.35;32.59;97357.03;4977755;28;1003;-77
2022/09/15 10:20:19;;;;;;;;;;;;;;;21.10;33.02;97358.69;5001571;28;1439;-76
2022/09/15 10:22:45;;;;;;;;;;;;;;;21.12;32.93;97361.06;5053363;28;788;-76
2022/09/15 10:25:19;;;;;;;;;;;;;;;21.28;32.63;97353.19;5039200;28;1902;-77
2022/09/15 10:28:00;;;;;;;;;;;;;;;21.13;32.93;97354.16;5039808;28;1093;-77
2022/09/15 10:30:26;;;;;;;;;;;;;;;21.39;32.55;97363.38;5038936;28;894;-77
2022/09/15 10:32:51;;;;;;;;;;;;;;;21.36;32.48;97350.16;5039406;28;856;-76
2022/09/15 10:35:17;;;;;;;;;;;;;;;21.27;32.64;97345.94;5022268;28;1566;-76
2022/09/15 10:37:43;;;;;;;;;;;;;;;21.20;33.10;97348.25;5038682;28;1467;-77
2022/09/15 10:40:28;;;;;;;;;;;;;;;21.22;32.84;97332.38;5056801;28;707;-76
2022/09/15 10:42:57;;;;;;;;;;;;;;;21.31;32.77;97332.50;4995289;28;1018;-76
2022/09/15 10:45:24;;;;;;;;;;;;;;;21.31;32.65;97335.34;4963095;28;1981;-76
2022/09/15 10:48:08;;;;;;;;;;;;;;;21.11;33.34;97331.19;4979457;28;926;-76
2022/09/15 10:50:39;;;;;;;;;;;;;;;21.21;33.08;97333.66;4994553;28;1516;-76
2022/09/15 10:53:22;;;;;;;;;;;;;;;21.15;32.98;97327.00;4995145;28;1020;-76
2022/09/15 10:56:06;;;;;;;;;;;;;;;21.11;33.08;97329.16;4995115;28;911;-77
2022/09/15 10:58:32;;;;;;;;;;;;;;;21.29;32.88;97322.84;4995143;28;906;-76
2022/09/15 11:00:58;;;;;;;;;;;;;;;21.32;33.01;97322.75;4995869;28;991;-77
2022/09/15 11:03:24;;;;;;;;;;;;;;;21.33;32.97;97318.66;4995377;28;977;-76
2022/09/15 11:05:54;;;;;;;;;;;;;;;21.44;32.93;97311.84;4984099;28;1906;-77
2022/09/15 11:08:33;;;;;;;;;;;;;;;21.45;32.88;97321.91;4973328;28;1452;-76
2022/09/15 11:11:03;;;;;;;;;;;;;;;21.31;33.41;97297.75;4975688;28;845;-76
2022/09/15 11:13:37;;;;;;;;;;;;;;;21.26;33.14;97316.09;4975782;28;968;-76
2022/09/15 11:16:05;;;;;;;;;;;;;;;21.47;32.89;97308.09;4975686;28;1007;-76
2022/09/15 11:18:31;;;;;;;;;;;;;;;21.56;32.89;97308.16;4975619;28;866;-76
2022/09/15 11:20:59;;;;;;;;;;;;;;;21.30;32.99;97296.97;5012398;28;948;-77
2022/09/15 11:23:32;;;;;;;;;;;;;;;21.27;33.12;97305.56;5034820;28;1634;-76
2022/09/15 11:25:59;;;;;;;;;;;;;;;21.43;33.16;97302.56;5018929;28;1906;-77
2022/09/15 11:28:30;;;;;;;;;;;;;;;21.37;33.03;97303.63;4975449;28;807;-76
2022/09/15 11:30:58;;;;;;;;;;;;;;;21.49;32.65;97300.69;4959742;28;970;-76
2022/09/15 11:33:24;;;;;;;;;;;;;;;21.50;32.92;97295.84;4975627;28;1035;-76
2022/09/15 11:35:53;;;;;;;;;;;;;;;21.56;32.68;97294.00;4978792;28;869;-76
2022/09/15 11:38:27;;;;;;;;;;;;;;;21.44;32.84;97300.50;4961604;28;1700;-76
2022/09/15 11:41:18;;;;;;;;;;;;;;;21.35;32.98;97306.09;4963020;28;895;-76
2022/09/15 11:44:19;;;;;;;;;;;;;;;21.54;32.61;97299.31;4959621;29;1977;-76
2022/09/15 11:46:44;;;;;;;;;;;;;;;21.45;32.88;97299.25;4902893;29;986;-76
2022/09/15 11:49:12;;;;;;;;;;;;;;;21.41;32.85;97296.56;4902399;29;974;-76
2022/09/15 11:51:40;;;;;;;;;;;;;;;21.25;33.31;97303.19;4902374;29;965;-77
2022/09/15 11:54:17;;;;;;;;;;;;;;;21.28;33.07;97288.09;4875299;29;1550;-76
2022/09/15 11:56:43;;;;;;;;;;;;;;;21.45;33.13;97277.44;4883726;29;982;-76
2022/09/15 11:59:27;;;;;;;;;;;;;;;21.56;32.55;97289.13;4901772;29;1156;-76
2022/09/15 12:02:11;;;;;;;;;;;;;;;21.46;32.81;97279.00;4924291;29;1159;-76
2022/09/15 12:04:39;;;;;;;;;;;;;;;21.41;32.96;97282.44;4940278;29;1910;-77
2022/09/15 12:07:14;;;;;;;;;;;;;;;21.64;32.84;97295.31;4940298;29;1102;-77
2022/09/15 12:09:40;;;;;;;;;;;;;;;21.55;32.87;97298.06;4957104;29;1461;-76
2022/09/15 12:12:06;;;;;;;;;;;;;;;21.51;33.09;97286.09;4945209;29;1695;-76
2022/09/15 12:14:36;;;;;;;;;;;;;;;21.31;33.48;97290.06;4943089;29;1048;-76
2022/09/15 12:17:03;;;;;;;;;;;;;;;21.63;32.59;97292.94;4943083;29;980;-76
2022/09/15 12:19:32;;;;;;;;;;;;;;;21.50;32.96;97295.84;4944316;28;1026;-76
2022/09/15 12:22:36;;;;;;;;;;;;;;;21.45;32.87;97290.75;5039450;28;702;-77
2022/09/15 12:25:02;;;;;;;;;;;;;;;21.59;32.71;97287.41;4997622;28;1902;-76
2022/09/15 12:27:28;;;;;;;;;;;;;;;21.46;32.81;97279.00;4971025;28;1519;-76
2022/09/15 12:29:54;;;;;;;;;;;;;;;21.30;33.08;97282.81;4978308;28;1058;-76
2022/09/15 12:32:23;;;;;;;;;;;;;;;21.36;33.09;97276.56;4978392;28;903;-77
2022/09/15 12:34:58;;;;;;;;;;;;;;;21.27;33.46;97277.25;4978144;28;877;-76
2022/09/15 12:37:24;;;;;;;;;;;;;;;21.20;33.53;97278.31;4978268;28;949;-76
2022/09/15 12:39:50;;;;;;;;;;;;;;;21.23;33.23;97277.38;4976828;28;1517;-76
2022/09/15 12:42:25;;;;;;;;;;;;;;;21.29;33.09;97269.09;4962102;28;893;-76
2022/09/15 12:44:56;;;;;;;;;;;;;;;21.23;33.44;97273.75;4977834;28;1977;-76
2022/09/15 12:47:27;;;;;;;;;;;;;;;21.55;32.90;97266.94;4976480;28;1548;-76
2022/09/15 12:49:53;;;;;;;;;;;;;;;21.57;32.83;97268.06;4978071;28;890;-76
2022/09/15 12:52:19;;;;;;;;;;;;;;;21.61;32.80;97279.25;4977758;28;868;-77
2022/09/15 12:54:48;;;;;;;;;;;;;;;21.50;32.74;97261.88;4981065;28;1051;-76
2022/09/15 12:57:16;;;;;;;;;;;;;;;21.68;32.36;97261.97;4996943;28;973;-77
2022/09/15 12:59:42;;;;;;;;;;;;;;;21.69;32.68;97274.88;4978039;28;836;-77
2022/09/15 13:02:14;;;;;;;;;;;;;;;21.48;32.92;97272.88;4975440;28;1454;-76
2022/09/15 13:04:39;;;;;;;;;;;;;;;21.45;32.75;97270.94;4977602;28;1910;-76
2022/09/15 13:07:14;;;;;;;;;;;;;;;21.62;32.85;97263.84;4977450;28;927;-77
2022/09/15 13:09:42;;;;;;;;;;;;;;;21.60;32.99;97283.31;4977205;28;1232;-77
2022/09/15 13:12:08;;;;;;;;;;;;;;;21.48;32.91;97287.03;4977365;28;956;-77